Time;durP1;ratioP1;P1;durP2;ratioP2;P2;SDS_P1;SDS_P2;PMS_P1;PMS_P2;Temp;Humidity;BMP_temperature;BMP_pressure;BME280_temperature;BME280_humidity;BME280_pressure;Samples;Min_cycle;Max_cycle;Signal;HPM_P1;HPM_P2
2022/01/08 00:02:25;;;;;;;39.08;26.52;;;;;;;;;;143734;611;46023;-80
2022/01/08 00:04:51;;;;;;;41.33;26.77;;;;;;;;;;143733;564;46012;-81
2022/01/08 00:07:18;;;;;;;44.13;32.22;;;;;;;;;;143732;593;46020;-81
2022/01/08 00:09:45;;;;;;;44.90;31.62;;;;;;;;;;143736;592;46020;-80
2022/01/08 00:12:26;;;;;;;39.97;29.80;;;;;;;;;;143731;606;46022;-80
2022/01/08 00:14:53;;;;;;;47.03;30.10;;;;;;;;;;143731;573;46021;-80
2022/01/08 00:17:22;;;;;;;45.35;33.08;;;;;;;;;;143735;614;46020;-81
2022/01/08 00:19:50;;;;;;;42.17;29.67;;;;;;;;;;143734;590;46012;-81
2022/01/08 00:22:17;;;;;;;38.75;27.33;;;;;;;;;;143732;585;47022;-80
2022/01/08 00:24:45;;;;;;;33.85;26.17;;;;;;;;;;143732;577;46916;-80
2022/01/08 00:27:11;;;;;;;34.13;25.27;;;;;;;;;;143734;606;46042;-82
2022/01/08 00:29:39;;;;;;;31.83;21.77;;;;;;;;;;143733;569;47012;-80
2022/01/08 00:32:08;;;;;;;26.42;19.30;;;;;;;;;;143731;586;47023;-80
2022/01/08 00:34:35;;;;;;;28.62;18.45;;;;;;;;;;143732;622;46012;-80
2022/01/08 00:37:02;;;;;;;25.05;18.17;;;;;;;;;;143734;609;46020;-81
2022/01/08 00:39:29;;;;;;;24.37;18.70;;;;;;;;;;143733;569;46012;-81
2022/01/08 00:41:56;;;;;;;28.25;19.15;;;;;;;;;;143731;632;46022;-79
2022/01/08 00:44:23;;;;;;;25.05;19.48;;;;;;;;;;143733;621;46021;-80
2022/01/08 00:46:52;;;;;;;28.12;19.60;;;;;;;;;;143733;581;46020;-81
2022/01/08 00:49:19;;;;;;;29.70;20.30;;;;;;;;;;143735;564;46018;-81
2022/01/08 00:51:45;;;;;;;31.60;19.73;;;;;;;;;;143732;604;46021;-80
2022/01/08 00:54:11;;;;;;;30.88;20.12;;;;;;;;;;143732;569;46020;-81
2022/01/08 00:56:38;;;;;;;31.70;19.60;;;;;;;;;;143734;708;46020;-81
2022/01/08 00:59:05;;;;;;;28.42;19.70;;;;;;;;;;143733;569;46013;-82
2022/01/08 01:01:31;;;;;;;35.08;20.67;;;;;;;;;;143733;564;46023;-80
2022/01/08 01:03:58;;;;;;;31.33;23.90;;;;;;;;;;143733;595;46020;-81
2022/01/08 01:06:25;;;;;;;29.65;23.52;;;;;;;;;;143734;564;46020;-80
2022/01/08 01:08:51;;;;;;;29.50;20.73;;;;;;;;;;143734;808;46018;-81
2022/01/08 01:11:18;;;;;;;36.60;24.92;;;;;;;;;;143731;672;47022;-80
2022/01/08 01:13:45;;;;;;;38.58;26.60;;;;;;;;;;143733;598;46021;-80
2022/01/08 01:16:11;;;;;;;32.60;24.30;;;;;;;;;;143733;587;47020;-80
2022/01/08 01:18:38;;;;;;;28.58;22.27;;;;;;;;;;143735;621;46012;-80
2022/01/08 01:21:06;;;;;;;29.85;23.92;;;;;;;;;;143732;627;47021;-80
2022/01/08 01:23:40;;;;;;;31.62;24.70;;;;;;;;;;143731;618;46012;-81
2022/01/08 01:26:12;;;;;;;32.03;22.83;;;;;;;;;;143732;579;46046;-80
2022/01/08 01:28:46;;;;;;;34.28;24.48;;;;;;;;;;143735;637;47020;-80
2022/01/08 01:48:03;;;;;;;29.35;22.37;;;;;;;;;;143734;623;46020;-80
2022/01/08 01:50:29;;;;;;;29.27;21.02;;;;;;;;;;143735;612;46012;-80
2022/01/08 01:52:56;;;;;;;32.92;21.85;;;;;;;;;;143733;591;46014;-80
2022/01/08 01:55:24;;;;;;;28.85;19.70;;;;;;;;;;143732;627;46012;-80
2022/01/08 01:57:52;;;;;;;33.95;20.98;;;;;;;;;;143736;566;46014;-81
2022/01/08 02:00:30;;;;;;;26.62;20.60;;;;;;;;;;143734;626;46013;-80
2022/01/08 02:02:57;;;;;;;33.33;25.17;;;;;;;;;;143731;626;47022;-81
2022/01/08 02:05:23;;;;;;;35.75;26.55;;;;;;;;;;143732;684;46020;-80
2022/01/08 02:07:54;;;;;;;33.28;24.25;;;;;;;;;;143733;614;46021;-80
2022/01/08 02:10:22;;;;;;;34.50;24.63;;;;;;;;;;143736;611;46018;-80
2022/01/08 02:12:49;;;;;;;32.58;22.67;;;;;;;;;;143731;620;47020;-81
2022/01/08 02:15:15;;;;;;;34.60;25.40;;;;;;;;;;143734;680;46012;-81
2022/01/08 02:17:42;;;;;;;31.55;24.80;;;;;;;;;;143732;629;46020;-81
2022/01/08 02:20:12;;;;;;;30.95;25.90;;;;;;;;;;143734;631;46020;-81
2022/01/08 02:22:42;;;;;;;33.88;23.90;;;;;;;;;;143732;640;47023;-80
2022/01/08 02:25:09;;;;;;;31.60;24.55;;;;;;;;;;143734;589;46020;-80
2022/01/08 02:27:36;;;;;;;36.33;25.88;;;;;;;;;;143733;570;46015;-81
2022/01/08 02:30:04;;;;;;;34.35;24.30;;;;;;;;;;143734;583;47021;-80
2022/01/08 02:32:32;;;;;;;31.65;23.42;;;;;;;;;;143732;617;46022;-79
2022/01/08 02:34:59;;;;;;;33.55;24.92;;;;;;;;;;143731;645;46012;-82
2022/01/08 02:37:30;;;;;;;32.08;24.35;;;;;;;;;;143733;634;46021;-81
2022/01/08 02:39:57;;;;;;;34.72;24.52;;;;;;;;;;143734;585;46012;-80
2022/01/08 02:42:26;;;;;;;32.15;23.25;;;;;;;;;;143733;588;46022;-80
2022/01/08 02:44:53;;;;;;;35.53;24.80;;;;;;;;;;143732;731;46013;-81
2022/01/08 02:47:21;;;;;;;32.90;24.55;;;;;;;;;;143733;564;46020;-81
2022/01/08 02:49:52;;;;;;;31.92;24.17;;;;;;;;;;143735;625;46012;-79
2022/01/08 02:52:19;;;;;;;31.70;23.33;;;;;;;;;;143733;630;46021;-80
2022/01/08 02:54:46;;;;;;;41.13;24.70;;;;;;;;;;143734;585;46020;-81
2022/01/08 02:57:14;;;;;;;34.60;24.42;;;;;;;;;;143735;577;46020;-81
2022/01/08 02:59:41;;;;;;;33.63;24.67;;;;;;;;;;143736;608;46018;-82
2022/01/08 03:02:09;;;;;;;31.77;24.40;;;;;;;;;;143732;569;47022;-79
2022/01/08 03:04:36;;;;;;;25.85;19.55;;;;;;;;;;143732;628;46020;-80
2022/01/08 03:07:03;;;;;;;34.33;21.08;;;;;;;;;;143735;604;46021;-79
2022/01/08 03:09:31;;;;;;;27.58;17.87;;;;;;;;;;143735;583;46012;-80
2022/01/08 03:11:57;;;;;;;26.70;20.70;;;;;;;;;;143732;581;47022;-81
2022/01/08 03:14:24;;;;;;;30.58;20.25;;;;;;;;;;143731;589;46013;-79
2022/01/08 03:16:51;;;;;;;28.08;20.10;;;;;;;;;;143732;564;46020;-81
2022/01/08 03:19:18;;;;;;;27.83;20.90;;;;;;;;;;143734;569;46020;-81
2022/01/08 03:21:51;;;;;;;30.83;20.37;;;;;;;;;;143732;634;47023;-80
2022/01/08 03:24:26;;;;;;;31.65;22.65;;;;;;;;;;143734;625;46012;-80
2022/01/08 03:26:52;;;;;;;33.90;22.52;;;;;;;;;;143733;623;46020;-79
2022/01/08 03:29:19;;;;;;;28.65;22.15;;;;;;;;;;143737;566;46043;-80
2022/01/08 03:31:45;;;;;;;39.00;23.52;;;;;;;;;;143735;609;46022;-81
2022/01/08 03:34:12;;;;;;;27.80;21.33;;;;;;;;;;143733;624;46020;-81
2022/01/08 03:36:39;;;;;;;28.75;21.48;;;;;;;;;;143732;665;46021;-80
2022/01/08 03:39:05;;;;;;;30.95;21.62;;;;;;;;;;143736;600;46045;-80
2022/01/08 03:41:32;;;;;;;25.85;19.98;;;;;;;;;;143733;625;46022;-79
2022/01/08 03:43:58;;;;;;;25.27;19.50;;;;;;;;;;143733;639;46013;-79
2022/01/08 03:46:28;;;;;;;34.58;24.10;;;;;;;;;;143736;586;46020;-80
2022/01/08 03:51:47;;;;;;;28.20;21.70;;;;;;;;;;143734;632;46021;-79
2022/01/08 03:54:14;;;;;;;29.58;21.15;;;;;;;;;;143733;595;46020;-81
2022/01/08 03:56:40;;;;;;;28.17;19.55;;;;;;;;;;143732;588;47020;-82
2022/01/08 03:59:07;;;;;;;33.70;22.00;;;;;;;;;;143736;622;46012;-80
2022/01/08 04:01:34;;;;;;;28.77;21.65;;;;;;;;;;143733;677;47022;-79
2022/01/08 04:04:01;;;;;;;27.98;23.17;;;;;;;;;;143732;572;46012;-80
2022/01/08 04:06:27;;;;;;;24.17;18.52;;;;;;;;;;143734;572;46021;-79
2022/01/08 04:08:57;;;;;;;28.98;21.00;;;;;;;;;;143737;607;47012;-81
2022/01/08 04:11:25;;;;;;;33.85;22.13;;;;;;;;;;143735;568;46022;-81
2022/01/08 04:13:53;;;;;;;30.35;20.30;;;;;;;;;;143733;615;46013;-80
2022/01/08 04:16:27;;;;;;;25.05;18.55;;;;;;;;;;143733;620;46020;-81
2022/01/08 04:18:54;;;;;;;28.85;20.40;;;;;;;;;;143734;598;46012;-80
2022/01/08 04:24:13;;;;;;;32.65;22.33;;;;;;;;;;143735;597;46040;-79
2022/01/08 04:26:40;;;;;;;34.13;23.75;;;;;;;;;;143734;592;46020;-79
2022/01/08 04:29:10;;;;;;;37.83;23.23;;;;;;;;;;143737;765;46039;-79
2022/01/08 04:31:37;;;;;;;36.50;26.08;;;;;;;;;;143734;736;46052;-80
2022/01/08 04:34:03;;;;;;;29.08;23.73;;;;;;;;;;143734;598;46020;-79
2022/01/08 04:36:30;;;;;;;31.65;23.73;;;;;;;;;;143733;634;47021;-80
2022/01/08 04:38:56;;;;;;;33.60;24.30;;;;;;;;;;143740;616;46018;-79
2022/01/08 04:41:23;;;;;;;37.47;25.92;;;;;;;;;;143735;628;46022;-81
2022/01/08 04:43:50;;;;;;;33.08;21.62;;;;;;;;;;143736;592;46013;-80
2022/01/08 04:46:17;;;;;;;29.73;22.08;;;;;;;;;;143738;621;46020;-80
2022/01/08 04:48:44;;;;;;;28.12;21.00;;;;;;;;;;143737;622;46031;-81
2022/01/08 04:51:11;;;;;;;27.67;20.65;;;;;;;;;;143733;615;47022;-81
2022/01/08 04:53:37;;;;;;;29.12;20.95;;;;;;;;;;143735;580;46012;-80
2022/01/08 04:56:04;;;;;;;38.33;25.83;;;;;;;;;;143736;593;46020;-80
2022/01/08 04:58:31;;;;;;;35.22;23.25;;;;;;;;;;143736;589;46013;-80
2022/01/08 05:00:58;;;;;;;34.10;24.27;;;;;;;;;;143734;596;47022;-79
2022/01/08 05:03:24;;;;;;;34.65;23.45;;;;;;;;;;143734;595;46012;-80
2022/01/08 05:05:51;;;;;;;32.97;23.70;;;;;;;;;;143733;623;46021;-80
2022/01/08 05:08:18;;;;;;;29.05;22.42;;;;;;;;;;143736;620;46047;-79
2022/01/08 05:10:44;;;;;;;32.65;22.52;;;;;;;;;;143734;563;47022;-79
2022/01/08 05:13:11;;;;;;;36.55;24.70;;;;;;;;;;143733;591;46014;-80
2022/01/08 05:15:38;;;;;;;37.78;23.75;;;;;;;;;;143736;569;46020;-80
2022/01/08 05:18:09;;;;;;;33.10;22.83;;;;;;;;;;143738;571;46018;-79
2022/01/08 05:20:38;;;;;;;35.28;22.77;;;;;;;;;;143734;611;46022;-80
2022/01/08 05:23:05;;;;;;;26.60;21.83;;;;;;;;;;143733;625;46012;-81
2022/01/08 05:25:32;;;;;;;33.35;22.90;;;;;;;;;;143733;676;47020;-80
2022/01/08 05:27:59;;;;;;;25.65;20.25;;;;;;;;;;143736;586;46018;-79
2022/01/08 05:30:27;;;;;;;28.75;19.15;;;;;;;;;;143735;600;46023;-80
2022/01/08 05:32:54;;;;;;;28.98;19.30;;;;;;;;;;143733;617;46012;-79
2022/01/08 05:35:22;;;;;;;26.55;19.50;;;;;;;;;;143735;609;46021;-79
2022/01/08 05:37:49;;;;;;;28.62;20.58;;;;;;;;;;143736;571;46012;-80
2022/01/08 05:40:16;;;;;;;26.58;18.20;;;;;;;;;;143733;605;46022;-81
2022/01/08 05:42:44;;;;;;;39.15;19.50;;;;;;;;;;143734;624;46012;-80
2022/01/08 05:45:10;;;;;;;31.87;18.92;;;;;;;;;;143733;719;46020;-80
2022/01/08 05:47:40;;;;;;;25.65;18.80;;;;;;;;;;143734;640;46012;-80
2022/01/08 05:50:08;;;;;;;35.38;23.10;;;;;;;;;;143736;625;46014;-80
2022/01/08 05:52:35;;;;;;;44.30;26.40;;;;;;;;;;143736;614;46020;-80
2022/01/08 05:55:03;;;;;;;38.97;26.45;;;;;;;;;;143734;565;46020;-80
2022/01/08 05:57:30;;;;;;;37.78;29.83;;;;;;;;;;143737;646;46018;-81
2022/01/08 05:59:57;;;;;;;38.22;29.35;;;;;;;;;;143734;614;47023;-79
2022/01/08 06:02:23;;;;;;;34.95;28.10;;;;;;;;;;143731;580;46012;-80
2022/01/08 06:04:50;;;;;;;39.13;26.60;;;;;;;;;;143736;589;46021;-81
2022/01/08 06:07:16;;;;;;;34.63;26.23;;;;;;;;;;143738;593;46020;-80
2022/01/08 06:09:43;;;;;;;38.05;27.87;;;;;;;;;;143734;600;46022;-81
2022/01/08 06:12:10;;;;;;;38.97;26.00;;;;;;;;;;143734;648;46013;-80
2022/01/08 06:14:36;;;;;;;30.00;23.73;;;;;;;;;;143735;569;46021;-79
2022/01/08 06:17:04;;;;;;;33.17;23.33;;;;;;;;;;143737;597;46023;-81
2022/01/08 06:19:32;;;;;;;43.95;25.42;;;;;;;;;;143733;583;46022;-79
2022/01/08 06:21:59;;;;;;;35.65;24.45;;;;;;;;;;143734;597;46916;-80
2022/01/08 06:24:26;;;;;;;40.88;24.37;;;;;;;;;;143736;582;46020;-80
2022/01/08 06:26:52;;;;;;;34.47;24.52;;;;;;;;;;143735;643;46019;-79
2022/01/08 06:29:19;;;;;;;37.88;24.95;;;;;;;;;;143733;577;47023;-80
2022/01/08 06:31:45;;;;;;;36.47;25.12;;;;;;;;;;143737;630;46020;-78
2022/01/08 06:34:12;;;;;;;34.05;23.00;;;;;;;;;;143734;572;46021;-80
2022/01/08 06:36:38;;;;;;;32.65;22.95;;;;;;;;;;143737;567;46012;-80
2022/01/08 06:39:05;;;;;;;34.28;26.80;;;;;;;;;;143734;595;46022;-79
2022/01/08 06:41:32;;;;;;;37.92;28.00;;;;;;;;;;143732;566;46029;-80
2022/01/08 06:43:59;;;;;;;44.08;31.58;;;;;;;;;;143736;564;46014;-79
2022/01/08 06:46:26;;;;;;;43.40;31.67;;;;;;;;;;143736;592;46012;-80
2022/01/08 06:48:53;;;;;;;38.20;27.42;;;;;;;;;;143733;624;46022;-79
2022/01/08 06:51:20;;;;;;;50.08;30.52;;;;;;;;;;143735;618;46021;-79
2022/01/08 06:53:49;;;;;;;36.70;30.17;;;;;;;;;;143736;569;46014;-79
2022/01/08 06:56:17;;;;;;;38.17;28.27;;;;;;;;;;143738;595;46012;-81
2022/01/08 06:58:46;;;;;;;36.65;27.25;;;;;;;;;;143732;569;47023;-79
2022/01/08 07:01:14;;;;;;;34.33;22.52;;;;;;;;;;143734;586;46012;-79
2022/01/08 07:03:41;;;;;;;30.83;22.92;;;;;;;;;;143734;569;46020;-79
2022/01/08 07:06:07;;;;;;;40.28;23.33;;;;;;;;;;143733;569;46021;-80
2022/01/08 07:08:35;;;;;;;43.83;27.77;;;;;;;;;;143732;586;47022;-79
2022/01/08 07:11:03;;;;;;;34.03;26.00;;;;;;;;;;143733;565;46013;-79
2022/01/08 07:13:30;;;;;;;33.90;26.40;;;;;;;;;;143736;611;46021;-79
2022/01/08 07:15:57;;;;;;;36.90;27.40;;;;;;;;;;143737;645;46020;-79
2022/01/08 07:18:26;;;;;;;33.78;27.70;;;;;;;;;;143733;636;46022;-79
2022/01/08 07:20:54;;;;;;;37.00;29.17;;;;;;;;;;143733;606;46012;-79
2022/01/08 07:23:23;;;;;;;42.25;30.48;;;;;;;;;;143736;592;46014;-79
2022/01/08 07:25:50;;;;;;;38.22;27.87;;;;;;;;;;143735;627;46019;-79
2022/01/08 07:28:20;;;;;;;39.15;26.92;;;;;;;;;;143729;596;47014;-80
2022/01/08 07:30:47;;;;;;;42.97;25.98;;;;;;;;;;143734;572;46014;-79
2022/01/08 07:33:16;;;;;;;35.97;24.95;;;;;;;;;;143737;567;46020;-79
2022/01/08 07:35:43;;;;;;;32.60;23.98;;;;;;;;;;143735;707;46020;-79
2022/01/08 07:38:40;;;;;;;35.05;24.92;;;;;;;;;;143735;647;46022;-80
2022/01/08 07:41:12;;;;;;;48.58;27.48;;;;;;;;;;143734;609;46020;-79
2022/01/08 07:43:43;;;;;;;46.15;27.70;;;;;;;;;;143737;600;45029;-79
2022/01/08 07:46:10;;;;;;;49.40;31.42;;;;;;;;;;143735;572;47012;-80
2022/01/08 07:48:37;;;;;;;37.15;29.45;;;;;;;;;;143734;622;46015;-79
2022/01/08 07:51:04;;;;;;;38.75;30.90;;;;;;;;;;143737;669;46012;-79
2022/01/08 07:53:31;;;;;;;42.33;32.25;;;;;;;;;;143735;617;46020;-80
2022/01/08 07:55:58;;;;;;;41.17;29.42;;;;;;;;;;143737;632;46048;-80
2022/01/08 07:58:24;;;;;;;39.25;29.75;;;;;;;;;;143733;645;47023;-79
2022/01/08 08:00:53;;;;;;;41.70;28.60;;;;;;;;;;143734;564;46012;-79
2022/01/08 08:03:20;;;;;;;44.33;30.25;;;;;;;;;;143737;601;46020;-80
2022/01/08 08:05:47;;;;;;;36.97;30.23;;;;;;;;;;143733;569;48018;-79
2022/01/08 08:08:22;;;;;;;57.13;33.10;;;;;;;;;;143734;566;46020;-79
2022/01/08 08:10:50;;;;;;;48.00;35.42;;;;;;;;;;143734;590;46013;-79
2022/01/08 08:13:21;;;;;;;49.65;31.17;;;;;;;;;;143735;601;46020;-79
2022/01/08 08:15:49;;;;;;;44.20;32.42;;;;;;;;;;143737;573;46020;-79
2022/01/08 08:18:15;;;;;;;42.60;30.80;;;;;;;;;;143734;629;46022;-79
2022/01/08 08:20:42;;;;;;;39.47;29.65;;;;;;;;;;143733;725;46012;-79
2022/01/08 08:23:09;;;;;;;50.50;31.05;;;;;;;;;;143735;566;46045;-80
2022/01/08 08:25:36;;;;;;;49.60;32.72;;;;;;;;;;143736;634;46013;-78
2022/01/08 08:28:07;;;;;;;40.03;31.90;;;;;;;;;;143734;620;46023;-79
2022/01/08 08:30:34;;;;;;;43.28;33.30;;;;;;;;;;143733;611;46012;-79
2022/01/08 08:33:04;;;;;;;38.80;30.95;;;;;;;;;;143737;630;46020;-79
2022/01/08 08:35:31;;;;;;;37.85;30.90;;;;;;;;;;143736;627;46018;-80
2022/01/08 08:37:58;;;;;;;39.60;31.02;;;;;;;;;;143734;565;46022;-79
2022/01/08 08:40:26;;;;;;;51.47;36.38;;;;;;;;;;143733;630;46012;-78
2022/01/08 08:42:55;;;;;;;44.85;34.08;;;;;;;;;;143733;628;46021;-79
2022/01/08 08:45:22;;;;;;;38.17;31.05;;;;;;;;;;143737;578;46012;-78
2022/01/08 08:47:50;;;;;;;39.75;29.65;;;;;;;;;;143734;638;47022;-79
2022/01/08 08:50:17;;;;;;;37.78;27.92;;;;;;;;;;143732;739;46024;-80
2022/01/08 08:52:43;;;;;;;40.12;31.17;;;;;;;;;;143736;603;46020;-78
2022/01/08 08:55:13;;;;;;;48.00;32.28;;;;;;;;;;143736;659;46012;-78
2022/01/08 08:57:40;;;;;;;43.97;33.03;;;;;;;;;;143730;565;47023;-78
2022/01/08 09:00:07;;;;;;;51.30;36.40;;;;;;;;;;143732;636;46012;-79
2022/01/08 09:02:35;;;;;;;47.58;36.83;;;;;;;;;;143733;601;46015;-78
2022/01/08 09:05:03;;;;;;;43.40;37.83;;;;;;;;;;143734;595;46012;-79
2022/01/08 09:07:30;;;;;;;49.50;39.80;;;;;;;;;;143733;628;46014;-79
2022/01/08 09:10:01;;;;;;;53.70;36.30;;;;;;;;;;143733;638;47020;-80
2022/01/08 09:12:28;;;;;;;48.00;35.97;;;;;;;;;;143730;564;47021;-79
2022/01/08 09:14:54;;;;;;;48.50;40.20;;;;;;;;;;143733;595;47020;-78
2022/01/08 09:17:22;;;;;;;45.85;37.58;;;;;;;;;;143732;580;46022;-78
2022/01/08 09:19:49;;;;;;;52.10;40.15;;;;;;;;;;143733;564;46012;-79
2022/01/08 09:22:16;;;;;;;43.08;35.90;;;;;;;;;;143733;587;46020;-79
2022/01/08 09:24:44;;;;;;;55.28;38.95;;;;;;;;;;143734;613;46013;-78
2022/01/08 09:27:11;;;;;;;64.05;46.10;;;;;;;;;;143732;628;46023;-79
2022/01/08 09:29:38;;;;;;;63.15;50.50;;;;;;;;;;143732;605;46012;-79
2022/01/08 09:32:08;;;;;;;58.85;40.72;;;;;;;;;;143733;612;46021;-79
2022/01/08 09:34:36;;;;;;;55.80;42.08;;;;;;;;;;143736;880;46018;-78
2022/01/08 09:37:04;;;;;;;54.33;40.22;;;;;;;;;;143730;830;47020;-79
2022/01/08 09:39:32;;;;;;;55.83;38.22;;;;;;;;;;143734;569;46013;-79
2022/01/08 09:41:59;;;;;;;44.67;35.42;;;;;;;;;;143735;627;46020;-76
2022/01/08 09:44:26;;;;;;;46.53;33.58;;;;;;;;;;143733;613;46020;-78
2022/01/08 09:46:52;;;;;;;42.78;33.35;;;;;;;;;;143731;596;47022;-79
2022/01/08 09:49:19;;;;;;;37.80;28.10;;;;;;;;;;143732;576;46012;-80
2022/01/08 09:51:47;;;;;;;38.90;24.45;;;;;;;;;;143734;603;46020;-80
2022/01/08 09:54:13;;;;;;;35.40;25.45;;;;;;;;;;143734;624;46013;-79
2022/01/08 09:56:40;;;;;;;40.45;24.60;;;;;;;;;;143731;711;46023;-80
2022/01/08 09:59:07;;;;;;;41.75;26.02;;;;;;;;;;143732;845;46012;-79
2022/01/08 10:01:35;;;;;;;31.08;26.48;;;;;;;;;;143732;569;46019;-79
2022/01/08 10:04:04;;;;;;;52.00;36.03;;;;;;;;;;143734;566;46012;-80
2022/01/08 10:06:35;;;;;;;40.55;32.00;;;;;;;;;;143732;577;46016;-78
2022/01/08 10:09:07;;;;;;;49.50;29.75;;;;;;;;;;143735;564;46020;-79
2022/01/08 10:11:34;;;;;;;39.58;29.63;;;;;;;;;;143732;634;47020;-79
2022/01/08 10:14:14;;;;;;;41.80;32.33;;;;;;;;;;143736;854;46042;-79
2022/01/08 10:19:33;;;;;;;43.55;32.05;;;;;;;;;;143734;569;46021;-79
2022/01/08 10:21:59;;;;;;;41.05;30.02;;;;;;;;;;143732;611;48020;-79
2022/01/08 10:24:28;;;;;;;44.53;31.17;;;;;;;;;;143734;594;47019;-78
2022/01/08 10:27:03;;;;;;;45.25;30.00;;;;;;;;;;143732;579;47023;-79
2022/01/08 10:29:30;;;;;;;51.53;36.63;;;;;;;;;;143734;614;46012;-78
2022/01/08 10:31:57;;;;;;;64.72;49.38;;;;;;;;;;143734;638;46021;-78
2022/01/08 10:34:30;;;;;;;51.22;38.38;;;;;;;;;;143735;564;46018;-80
2022/01/08 10:37:04;;;;;;;53.92;36.58;;;;;;;;;;143732;634;47022;-78
2022/01/08 10:39:34;;;;;;;47.17;30.30;;;;;;;;;;143732;609;46013;-78
2022/01/08 10:42:17;;;;;;;43.20;29.55;;;;;;;;;;143735;617;46020;-80
2022/01/08 10:44:48;;;;;;;47.28;31.08;;;;;;;;;;143736;611;47018;-79
2022/01/08 10:47:21;;;;;;;56.70;35.20;;;;;;;;;;143732;604;47021;-79
2022/01/08 10:50:05;;;;;;;39.25;23.15;;;;;;;;;;143731;600;46012;-79
2022/01/08 10:52:44;;;;;;;24.30;19.20;;;;;;;;;;143736;643;46020;-80
2022/01/08 10:55:11;;;;;;;33.08;22.83;;;;;;;;;;143736;618;46021;-79
2022/01/08 10:57:45;;;;;;;28.95;18.87;;;;;;;;;;143735;587;46020;-78
2022/01/08 11:00:14;;;;;;;34.17;24.23;;;;;;;;;;143734;629;46012;-80
2022/01/08 11:02:45;;;;;;;30.65;21.62;;;;;;;;;;143734;617;46021;-79
2022/01/08 11:05:12;;;;;;;28.85;19.90;;;;;;;;;;143733;570;46020;-79
2022/01/08 11:07:44;;;;;;;18.05;14.55;;;;;;;;;;143731;569;47022;-79
2022/01/08 11:10:19;;;;;;;32.72;28.10;;;;;;;;;;143731;577;46013;-80
2022/01/08 11:12:48;;;;;;;27.87;17.37;;;;;;;;;;143733;585;46020;-80
2022/01/08 11:17:55;;;;;;;20.20;16.77;;;;;;;;;;143732;570;46014;-79
2022/01/08 11:20:24;;;;;;;25.20;16.98;;;;;;;;;;143733;631;46012;-79
2022/01/08 11:22:53;;;;;;;29.15;18.15;;;;;;;;;;143733;564;46020;-79
2022/01/08 11:25:32;;;;;;;23.77;17.73;;;;;;;;;;143735;599;46018;-78
2022/01/08 11:28:08;;;;;;;24.02;16.33;;;;;;;;;;143731;587;47022;-79
2022/01/08 11:30:39;;;;;;;29.70;14.20;;;;;;;;;;143732;564;46012;-79
2022/01/08 11:33:14;;;;;;;32.97;16.23;;;;;;;;;;143733;582;47021;-79
2022/01/08 11:35:45;;;;;;;20.48;14.80;;;;;;;;;;143736;605;46026;-79
2022/01/08 11:38:16;;;;;;;23.70;15.82;;;;;;;;;;143731;580;46014;-79
2022/01/08 11:40:46;;;;;;;26.60;15.77;;;;;;;;;;143731;576;46020;-80
2022/01/08 11:43:15;;;;;;;21.20;13.57;;;;;;;;;;143731;577;46020;-80
2022/01/08 11:45:53;;;;;;;19.02;13.02;;;;;;;;;;143735;635;46019;-80
2022/01/08 11:48:42;;;;;;;19.33;12.18;;;;;;;;;;143732;612;47023;-80
2022/01/08 11:51:21;;;;;;;21.83;14.15;;;;;;;;;;143734;570;46020;-79
2022/01/08 11:53:56;;;;;;;23.80;13.48;;;;;;;;;;143734;584;46020;-80
2022/01/08 11:56:37;;;;;;;21.77;16.30;;;;;;;;;;143734;589;46020;-79
2022/01/08 11:59:19;;;;;;;26.48;15.85;;;;;;;;;;143734;595;46020;-79
2022/01/08 12:02:09;;;;;;;19.60;13.90;;;;;;;;;;143731;600;46013;-79
2022/01/08 12:04:36;;;;;;;19.83;14.63;;;;;;;;;;143733;657;46020;-79
2022/01/08 12:07:39;;;;;;;25.20;14.77;;;;;;;;;;143734;587;46020;-80
2022/01/08 12:10:28;;;;;;;23.87;15.35;;;;;;;;;;143730;572;46025;-79
2022/01/08 12:13:00;;;;;;;18.48;14.27;;;;;;;;;;143730;569;47012;-79
2022/01/08 12:15:52;;;;;;;20.92;13.38;;;;;;;;;;143734;564;46020;-79
2022/01/08 12:18:21;;;;;;;15.60;12.23;;;;;;;;;;143734;567;46021;-79
2022/01/08 12:20:52;;;;;;;23.98;14.35;;;;;;;;;;143732;615;46022;-79
2022/01/08 12:23:52;;;;;;;18.33;11.85;;;;;;;;;;143731;598;46012;-80
2022/01/08 12:26:45;;;;;;;15.65;10.65;;;;;;;;;;143734;610;46020;-81
2022/01/08 12:29:35;;;;;;;21.25;9.30;;;;;;;;;;143735;613;46012;-80
2022/01/08 12:32:37;;;;;;;16.70;8.65;;;;;;;;;;143733;569;46022;-79
2022/01/08 12:35:38;;;;;;;17.42;11.02;;;;;;;;;;143734;637;46020;-79
2022/01/08 12:38:09;;;;;;;14.35;9.27;;;;;;;;;;143733;579;46021;-79
2022/01/08 12:40:45;;;;;;;12.48;9.25;;;;;;;;;;143735;608;46018;-79
2022/01/08 12:43:37;;;;;;;18.25;9.20;;;;;;;;;;143732;580;46022;-78
2022/01/08 12:46:24;;;;;;;36.22;28.67;;;;;;;;;;143732;581;46013;-79
2022/01/08 12:49:11;;;;;;;22.87;17.70;;;;;;;;;;143733;618;46046;-79
2022/01/08 12:52:04;;;;;;;18.62;12.73;;;;;;;;;;143733;569;46018;-79
2022/01/08 12:54:31;;;;;;;14.15;9.70;;;;;;;;;;143731;628;46025;-79
2022/01/08 12:57:00;;;;;;;11.50;7.72;;;;;;;;;;143731;609;47020;-79
2022/01/08 12:59:32;;;;;;;11.45;7.78;;;;;;;;;;143732;572;47020;-79
2022/01/08 13:01:59;;;;;;;40.42;30.30;;;;;;;;;;143734;566;46012;-78
2022/01/08 13:04:30;;;;;;;13.77;11.12;;;;;;;;;;143731;633;47022;-80
2022/01/08 13:06:56;;;;;;;20.83;12.05;;;;;;;;;;143731;590;47012;-78
2022/01/08 13:09:28;;;;;;;13.95;8.82;;;;;;;;;;143732;576;47021;-79
2022/01/08 13:11:56;;;;;;;19.85;12.05;;;;;;;;;;143734;574;46018;-79
2022/01/08 13:14:24;;;;;;;19.65;11.82;;;;;;;;;;143732;573;46022;-79
2022/01/08 13:16:54;;;;;;;17.73;10.88;;;;;;;;;;143732;581;46012;-79
2022/01/08 13:19:26;;;;;;;15.45;8.27;;;;;;;;;;143735;571;46037;-79
2022/01/08 13:21:56;;;;;;;13.02;9.38;;;;;;;;;;143733;610;46020;-79
2022/01/08 13:24:28;;;;;;;14.70;10.70;;;;;;;;;;143736;569;46015;-80
2022/01/08 13:27:03;;;;;;;13.80;8.53;;;;;;;;;;143735;647;45915;-78
2022/01/08 13:29:44;;;;;;;14.27;8.50;;;;;;;;;;143732;633;47020;-79
2022/01/08 13:32:13;;;;;;;13.35;8.02;;;;;;;;;;143736;605;46018;-80
2022/01/08 13:34:56;;;;;;;18.77;6.87;;;;;;;;;;143732;591;47020;-79
2022/01/08 13:37:31;;;;;;;17.98;8.30;;;;;;;;;;143732;589;46012;-78
2022/01/08 13:40:00;;;;;;;10.15;6.93;;;;;;;;;;143734;565;46021;-79
2022/01/08 13:42:38;;;;;;;12.05;7.25;;;;;;;;;;143736;589;46020;-78
2022/01/08 13:45:12;;;;;;;15.93;7.30;;;;;;;;;;143732;579;46022;-79
2022/01/08 13:47:47;;;;;;;17.15;9.57;;;;;;;;;;143732;658;46012;-78
2022/01/08 13:50:40;;;;;;;19.08;11.43;;;;;;;;;;143734;618;47020;-80
2022/01/08 13:53:13;;;;;;;21.17;12.80;;;;;;;;;;143734;737;46020;-79
2022/01/08 13:55:43;;;;;;;16.00;9.65;;;;;;;;;;143731;588;47023;-79
2022/01/08 13:58:19;;;;;;;15.65;9.10;;;;;;;;;;143731;595;47012;-79
2022/01/08 14:00:50;;;;;;;15.73;9.25;;;;;;;;;;143735;668;46014;-78
2022/01/08 14:03:25;;;;;;;11.40;6.32;;;;;;;;;;143733;570;46020;-80
2022/01/08 14:05:57;;;;;;;11.80;5.60;;;;;;;;;;143731;624;47022;-80
2022/01/08 14:08:24;;;;;;;9.13;6.12;;;;;;;;;;143734;581;46014;-80
2022/01/08 14:10:57;;;;;;;11.55;6.87;;;;;;;;;;143731;585;47020;-78
2022/01/08 14:13:25;;;;;;;;;;;;;;;;;;143737;980;46020;-80
2022/01/08 14:16:05;;;;;;;11.63;7.30;;;;;;;;;;143745;575;46021;-77
2022/01/08 14:18:32;;;;;;;16.00;10.02;;;;;;;;;;143733;571;46913;-78
2022/01/08 14:21:21;;;;;;;16.12;9.05;;;;;;;;;;143731;556;46020;-78
2022/01/08 14:23:49;;;;;;;13.60;7.18;;;;;;;;;;143733;603;47020;-78
2022/01/08 14:26:29;;;;;;;13.32;7.12;;;;;;;;;;143730;609;46030;-79
2022/01/08 14:29:06;;;;;;;17.08;8.88;;;;;;;;;;143733;616;47020;-80
2022/01/08 14:31:33;;;;;;;9.65;5.37;;;;;;;;;;143731;611;47020;-78
2022/01/08 14:34:20;;;;;;;12.95;6.20;;;;;;;;;;143734;597;46010;-78
2022/01/08 14:36:49;;;;;;;12.95;8.75;;;;;;;;;;143732;580;47022;-80
2022/01/08 14:39:35;;;;;;;35.78;24.75;;;;;;;;;;143732;589;46012;-79
2022/01/08 14:42:04;;;;;;;15.63;9.93;;;;;;;;;;143733;569;46018;-79
2022/01/08 14:44:32;;;;;;;12.88;8.18;;;;;;;;;;143733;640;46012;-79
2022/01/08 14:46:59;;;;;;;18.10;10.90;;;;;;;;;;143731;578;47023;-79
2022/01/08 14:49:26;;;;;;;14.00;11.15;;;;;;;;;;143734;575;46010;-80
2022/01/08 14:51:53;;;;;;;33.50;24.87;;;;;;;;;;143732;567;47020;-79
2022/01/08 14:54:47;;;;;;;16.40;13.73;;;;;;;;;;143731;583;47012;-79
2022/01/08 14:57:13;;;;;;;25.58;15.85;;;;;;;;;;143731;566;47024;-79
2022/01/08 14:59:41;;;;;;;17.17;13.23;;;;;;;;;;143731;587;46011;-78
2022/01/08 15:02:07;;;;;;;22.02;13.60;;;;;;;;;;143734;605;46049;-79
2022/01/08 15:04:34;;;;;;;22.27;14.95;;;;;;;;;;143734;601;46020;-81